Time;durP1;ratioP1;P1;durP2;ratioP2;P2;SDS_P1;SDS_P2;PMS_P1;PMS_P2;Temp;Humidity;BMP_temperature;BMP_pressure;BME280_temperature;BME280_humidity;BME280_pressure;Samples;Min_cycle;Max_cycle;Signal;HPM_P1;HPM_P2
2022/03/07 00:00:09;;;;;;;9.63;3.17;;;-1.50;99.90;;;;;;5046952;28;20116;-68
2022/03/07 00:02:35;;;;;;;8.70;2.80;;;-1.50;99.90;;;;;;5046650;28;20048;-68
2022/03/07 00:05:01;;;;;;;5.88;3.20;;;-1.50;99.90;;;;;;5050408;28;20032;-68
2022/03/07 00:07:26;;;;;;;6.07;2.70;;;-1.40;99.90;;;;;;5047861;28;20023;-68
2022/03/07 00:09:52;;;;;;;4.82;2.58;;;-1.40;99.90;;;;;;5043140;28;20040;-68
2022/03/07 00:12:17;;;;;;;7.32;3.30;;;-1.30;99.90;;;;;;5049786;28;20058;-68
2022/03/07 00:14:43;;;;;;;8.50;2.10;;;-1.20;99.90;;;;;;5042992;28;20100;-68
2022/03/07 00:17:08;;;;;;;7.82;3.50;;;-1.10;99.90;;;;;;5051898;28;20025;-68
2022/03/07 00:19:34;;;;;;;7.65;2.95;;;-1.10;99.90;;;;;;5044371;28;20017;-68
2022/03/07 00:22:00;;;;;;;5.00;2.88;;;-0.90;99.90;;;;;;5044791;28;20083;-68
2022/03/07 00:24:25;;;;;;;9.25;3.05;;;-0.90;99.90;;;;;;5046615;28;20033;-68
2022/03/07 00:26:51;;;;;;;11.15;3.70;;;-0.90;99.90;;;;;;5045175;28;20055;-68
2022/03/07 00:29:17;;;;;;;5.70;2.53;;;-0.80;99.90;;;;;;5045854;28;20056;-69
2022/03/07 00:31:45;;;;;;;9.20;3.20;;;-0.80;99.90;;;;;;5043930;28;20032;-69
2022/03/07 00:34:10;;;;;;;9.77;4.18;;;-0.60;99.90;;;;;;5044461;28;20033;-68
2022/03/07 00:36:36;;;;;;;11.90;4.47;;;-0.60;99.90;;;;;;5044591;28;20060;-68
2022/03/07 00:39:02;;;;;;;11.15;3.50;;;-0.40;99.90;;;;;;5045436;28;20040;-68
2022/03/07 00:41:29;;;;;;;10.57;4.13;;;-0.40;99.90;;;;;;5046665;28;20077;-68
2022/03/07 00:43:54;;;;;;;10.13;4.28;;;-0.30;99.90;;;;;;5044915;28;20064;-68
2022/03/07 00:46:20;;;;;;;7.35;2.97;;;-0.30;99.90;;;;;;5050156;28;20020;-68
2022/03/07 00:48:46;;;;;;;8.55;3.67;;;-0.20;99.90;;;;;;5044804;28;20051;-68
2022/03/07 00:51:11;;;;;;;10.35;3.95;;;-0.20;99.90;;;;;;5047510;28;20063;-68
2022/03/07 00:53:37;;;;;;;7.88;4.00;;;-0.30;99.90;;;;;;5046138;28;20036;-68
2022/03/07 00:56:03;;;;;;;10.70;3.17;;;-0.40;99.90;;;;;;5047121;28;20489;-68
2022/03/07 00:58:29;;;;;;;8.07;3.10;;;-0.40;99.90;;;;;;5044713;28;20035;-68
2022/03/07 01:00:54;;;;;;;7.18;3.03;;;-0.40;99.90;;;;;;5053197;28;20028;-68
2022/03/07 01:03:20;;;;;;;8.20;2.95;;;-0.30;99.90;;;;;;5044561;28;20083;-68
2022/03/07 01:05:46;;;;;;;15.57;4.07;;;-0.30;99.90;;;;;;5046182;28;20493;-68
2022/03/07 01:08:12;;;;;;;13.98;4.03;;;-0.30;99.90;;;;;;5042976;28;20032;-69
2022/03/07 01:10:38;;;;;;;12.68;4.38;;;-0.40;99.90;;;;;;5048811;28;20041;-69
2022/03/07 01:13:05;;;;;;;7.60;3.08;;;-0.50;99.90;;;;;;5050432;28;20484;-69
2022/03/07 01:15:31;;;;;;;6.90;2.60;;;-0.50;99.90;;;;;;5047104;28;20025;-69
2022/03/07 01:17:59;;;;;;;11.43;3.75;;;-0.60;99.90;;;;;;5044192;28;20036;-69
2022/03/07 01:20:26;;;;;;;5.97;2.67;;;-0.60;99.90;;;;;;5042606;28;20088;-69
2022/03/07 01:22:51;;;;;;;9.35;4.18;;;-0.40;99.90;;;;;;5048716;28;20124;-69
2022/03/07 01:25:17;;;;;;;6.43;2.83;;;-0.40;99.90;;;;;;5040945;28;20112;-69
2022/03/07 01:27:43;;;;;;;8.90;3.80;;;-0.50;99.90;;;;;;5045258;28;20349;-69
2022/03/07 01:30:09;;;;;;;13.27;3.47;;;-0.50;99.90;;;;;;5038588;28;20057;-68
2022/03/07 01:32:35;;;;;;;9.00;3.88;;;-0.50;99.90;;;;;;5049485;28;20032;-68
2022/03/07 01:35:00;;;;;;;9.48;4.25;;;-0.40;99.90;;;;;;5046308;28;20098;-68
2022/03/07 01:37:26;;;;;;;9.88;3.90;;;-0.50;99.90;;;;;;5051811;28;20472;-68
2022/03/07 01:39:52;;;;;;;11.57;3.78;;;-0.30;99.90;;;;;;5046161;28;20511;-68
2022/03/07 01:42:17;;;;;;;6.20;2.67;;;-0.30;99.90;;;;;;5048451;28;20040;-68
2022/03/07 01:44:43;;;;;;;14.30;3.00;;;-0.20;99.90;;;;;;5041929;28;20029;-68
2022/03/07 01:47:09;;;;;;;9.85;4.97;;;-0.30;99.90;;;;;;5048022;28;20025;-68
2022/03/07 01:49:35;;;;;;;14.38;3.83;;;-0.30;99.90;;;;;;5047037;28;20025;-68
2022/03/07 01:52:01;;;;;;;8.68;2.75;;;-0.40;99.90;;;;;;5042329;28;20021;-68
2022/03/07 01:54:26;;;;;;;9.13;3.70;;;-0.30;99.90;;;;;;5045284;28;20421;-68
2022/03/07 01:56:53;;;;;;;11.77;5.53;;;-0.20;99.90;;;;;;5043541;28;20544;-68
2022/03/07 01:59:27;;;;;;;11.68;4.03;;;-0.20;99.90;;;;;;5041641;28;20025;-68
2022/03/07 02:01:53;;;;;;;10.75;3.78;;;-0.10;99.90;;;;;;5039907;28;20036;-68
2022/03/07 02:04:19;;;;;;;9.40;3.30;;;-0.10;99.90;;;;;;5042217;28;20497;-68
2022/03/07 02:06:46;;;;;;;16.27;5.00;;;-0.20;99.90;;;;;;5040649;28;20116;-68
2022/03/07 02:09:13;;;;;;;11.43;3.47;;;-0.30;99.90;;;;;;5046089;28;20033;-68
2022/03/07 02:11:39;;;;;;;9.73;3.95;;;-0.20;99.90;;;;;;5051655;28;20029;-68
2022/03/07 02:14:16;;;;;;;11.38;3.13;;;-0.10;99.90;;;;;;5043658;28;20036;-68
2022/03/07 02:16:42;;;;;;;14.15;4.28;;;-0.10;99.90;;;;;;5058819;28;20025;-69
2022/03/07 02:19:08;;;;;;;7.60;3.00;;;0.00;99.90;;;;;;5046377;28;20401;-69
2022/03/07 02:21:34;;;;;;;8.63;4.28;;;0.00;99.90;;;;;;5046369;28;20040;-69
2022/03/07 02:24:00;;;;;;;10.93;3.53;;;-0.10;99.90;;;;;;5042614;28;20037;-69
2022/03/07 02:26:26;;;;;;;16.73;3.13;;;-0.20;99.90;;;;;;5042709;28;20485;-69
2022/03/07 02:28:52;;;;;;;10.52;3.33;;;-0.20;99.90;;;;;;5040922;28;20068;-68
2022/03/07 02:31:20;;;;;;;7.45;3.17;;;-0.10;99.90;;;;;;5045781;28;20039;-68
2022/03/07 02:33:47;;;;;;;7.07;3.38;;;-0.20;99.90;;;;;;5040235;28;20021;-68
2022/03/07 02:36:12;;;;;;;12.13;3.38;;;-0.10;99.90;;;;;;5046646;28;20481;-68
2022/03/07 02:38:38;;;;;;;9.65;3.85;;;-0.10;99.90;;;;;;5050148;28;20083;-68
2022/03/07 02:41:04;;;;;;;9.38;4.40;;;-0.20;99.90;;;;;;5043684;28;20144;-68
2022/03/07 02:43:30;;;;;;;9.38;3.13;;;-0.10;99.90;;;;;;5044796;28;20032;-68
2022/03/07 02:45:58;;;;;;;11.02;4.68;;;0.00;99.90;;;;;;5040659;28;20037;-68
2022/03/07 02:48:24;;;;;;;7.10;3.28;;;-0.10;99.90;;;;;;5033806;28;20384;-68
2022/03/07 02:50:50;;;;;;;7.18;3.22;;;-0.10;99.90;;;;;;5043452;28;20465;-68
2022/03/07 02:53:15;;;;;;;8.80;3.17;;;0.10;99.90;;;;;;5043774;28;20074;-68
2022/03/07 02:55:41;;;;;;;10.75;3.47;;;0.10;99.90;;;;;;5047435;28;20039;-68
2022/03/07 02:58:07;;;;;;;8.60;1.98;;;0.00;99.90;;;;;;5046644;28;20036;-68
2022/03/07 03:00:32;;;;;;;7.07;3.38;;;0.10;99.90;;;;;;5044664;28;20032;-68
2022/03/07 03:02:58;;;;;;;12.15;4.45;;;0.10;99.90;;;;;;5037224;28;20032;-68
2022/03/07 03:05:27;;;;;;;11.23;3.90;;;0.00;99.90;;;;;;5042654;28;20032;-68
2022/03/07 03:07:52;;;;;;;5.10;2.38;;;0.00;99.90;;;;;;5040913;28;20063;-68
2022/03/07 03:10:19;;;;;;;6.35;2.72;;;0.20;99.90;;;;;;5044846;28;20489;-68
2022/03/07 03:12:46;;;;;;;8.40;2.88;;;0.30;99.90;;;;;;5041385;28;20438;-68
2022/03/07 03:15:13;;;;;;;4.97;2.22;;;0.30;99.90;;;;;;5044675;28;20084;-68
2022/03/07 03:17:40;;;;;;;4.80;2.58;;;0.20;99.90;;;;;;5042542;28;20037;-68
2022/03/07 03:20:06;;;;;;;5.82;2.38;;;0.10;99.90;;;;;;5040068;28;20100;-68
2022/03/07 03:22:32;;;;;;;6.63;3.35;;;0.40;99.90;;;;;;5042563;28;20029;-68
2022/03/07 03:24:58;;;;;;;8.57;3.90;;;0.40;99.90;;;;;;5041068;28;20029;-68
2022/03/07 03:27:23;;;;;;;6.55;2.88;;;0.20;99.90;;;;;;5046024;28;20024;-68
2022/03/07 03:29:49;;;;;;;11.60;3.45;;;0.30;99.90;;;;;;5040342;28;20056;-68
2022/03/07 03:32:15;;;;;;;7.18;2.75;;;0.40;99.90;;;;;;5039875;28;20385;-68
2022/03/07 03:34:41;;;;;;;7.80;2.90;;;0.40;99.90;;;;;;5046890;28;20051;-68
2022/03/07 03:37:07;;;;;;;8.80;2.47;;;0.30;99.90;;;;;;5043163;28;20033;-68
2022/03/07 03:39:32;;;;;;;8.10;3.67;;;0.20;99.90;;;;;;5041634;28;20029;-68
2022/03/07 03:41:58;;;;;;;7.95;3.90;;;0.30;99.90;;;;;;5047045;28;20045;-68
2022/03/07 03:44:23;;;;;;;9.88;4.13;;;0.40;99.90;;;;;;5041722;28;20046;-68
2022/03/07 03:46:49;;;;;;;8.55;3.20;;;0.20;99.90;;;;;;5040422;28;20284;-68
2022/03/07 03:49:15;;;;;;;10.25;4.22;;;0.30;99.90;;;;;;5045037;28;20017;-68
2022/03/07 03:51:41;;;;;;;6.97;2.65;;;0.50;99.90;;;;;;5044821;28;20067;-68
2022/03/07 03:54:07;;;;;;;11.85;3.17;;;0.40;99.90;;;;;;5049865;28;20027;-68
2022/03/07 03:56:32;;;;;;;6.45;2.95;;;0.40;99.90;;;;;;5039324;28;20048;-68
2022/03/07 03:58:58;;;;;;;10.45;3.70;;;0.30;99.90;;;;;;5040748;28;20504;-68
2022/03/07 04:01:24;;;;;;;6.82;2.63;;;0.20;99.90;;;;;;5042227;28;20381;-68
2022/03/07 04:03:49;;;;;;;6.13;2.47;;;0.30;99.90;;;;;;5039800;28;20127;-68
2022/03/07 04:06:15;;;;;;;11.10;4.03;;;0.10;99.90;;;;;;5044110;28;20043;-68
2022/03/07 04:08:50;;;;;;;8.60;2.75;;;0.20;99.90;;;;;;5040781;28;20040;-68
2022/03/07 04:11:17;;;;;;;6.22;3.15;;;0.20;99.90;;;;;;5042723;28;20025;-68
2022/03/07 04:13:42;;;;;;;6.35;2.53;;;0.10;99.90;;;;;;5041259;28;20045;-68
2022/03/07 04:16:08;;;;;;;6.43;3.33;;;0.30;99.90;;;;;;5042366;28;20029;-68
2022/03/07 04:18:33;;;;;;;9.75;3.20;;;0.20;99.90;;;;;;5037266;28;20116;-68
2022/03/07 04:20:59;;;;;;;11.75;3.53;;;0.30;99.90;;;;;;5046963;28;20036;-68
2022/03/07 04:23:25;;;;;;;10.38;3.10;;;0.10;99.90;;;;;;5048741;28;20021;-68
2022/03/07 04:25:51;;;;;;;7.55;3.28;;;0.20;99.90;;;;;;5043314;28;20725;-68
2022/03/07 04:28:16;;;;;;;6.97;3.45;;;0.20;99.90;;;;;;5041426;28;20025;-68
2022/03/07 04:30:42;;;;;;;6.85;3.22;;;0.20;99.90;;;;;;5034910;28;20053;-69
2022/03/07 04:33:09;;;;;;;11.85;3.63;;;0.00;99.90;;;;;;5038115;28;20520;-69
2022/03/07 04:35:36;;;;;;;14.27;4.10;;;0.10;99.90;;;;;;5042251;28;20017;-69
2022/03/07 04:38:01;;;;;;;10.00;4.13;;;0.10;99.90;;;;;;5039564;28;20108;-69
2022/03/07 04:40:28;;;;;;;12.40;3.92;;;0.10;99.90;;;;;;5041609;28;20071;-69
2022/03/07 04:42:57;;;;;;;11.45;3.20;;;0.10;99.90;;;;;;5039814;28;20029;-69
2022/03/07 04:45:23;;;;;;;7.75;3.35;;;0.30;99.90;;;;;;5042924;28;20025;-69
2022/03/07 04:47:50;;;;;;;8.05;3.67;;;0.40;99.90;;;;;;5044936;28;20104;-69
2022/03/07 04:50:15;;;;;;;9.15;2.97;;;0.20;99.90;;;;;;5043400;28;20533;-69
2022/03/07 04:52:42;;;;;;;8.00;2.88;;;0.20;99.90;;;;;;5048798;28;20050;-69
2022/03/07 04:55:10;;;;;;;11.65;4.35;;;0.20;99.90;;;;;;5045943;28;20045;-69
2022/03/07 04:57:36;;;;;;;5.15;2.83;;;0.30;99.90;;;;;;5046771;28;20035;-69
2022/03/07 05:00:05;;;;;;;10.23;3.08;;;0.30;99.90;;;;;;5042469;28;20567;-69
2022/03/07 05:02:30;;;;;;;11.30;4.20;;;0.20;99.90;;;;;;5051662;28;20070;-68
2022/03/07 05:04:56;;;;;;;8.18;3.65;;;0.10;99.90;;;;;;5045380;28;20037;-68
2022/03/07 05:07:22;;;;;;;6.40;2.85;;;0.10;99.90;;;;;;5047108;28;20033;-68
2022/03/07 05:09:47;;;;;;;5.57;2.67;;;0.20;99.90;;;;;;5044434;28;20033;-68
2022/03/07 05:12:13;;;;;;;6.38;3.17;;;0.30;99.90;;;;;;5045625;28;20029;-69
2022/03/07 05:14:38;;;;;;;7.60;3.15;;;0.20;99.90;;;;;;5044967;28;20040;-69
2022/03/07 05:17:05;;;;;;;10.57;4.40;;;0.30;99.90;;;;;;5038511;28;20025;-68
2022/03/07 05:19:30;;;;;;;8.25;3.25;;;0.20;99.90;;;;;;5032252;28;20489;-68
2022/03/07 05:21:56;;;;;;;5.15;2.80;;;0.10;99.90;;;;;;5038073;28;20087;-68
2022/03/07 05:24:22;;;;;;;5.40;2.22;;;0.10;99.90;;;;;;5044506;28;20035;-68
2022/03/07 05:26:47;;;;;;;9.40;3.10;;;0.10;99.90;;;;;;5040661;28;20037;-68
2022/03/07 05:29:14;;;;;;;7.57;3.33;;;0.20;99.90;;;;;;5028560;28;20077;-66
2022/03/07 05:31:39;;;;;;;5.70;2.13;;;0.30;99.90;;;;;;5037886;28;20029;-66
2022/03/07 05:34:05;;;;;;;8.32;2.40;;;0.40;99.90;;;;;;5037073;28;20086;-67
2022/03/07 05:36:31;;;;;;;6.97;2.78;;;0.40;99.90;;;;;;5037328;28;20029;-66
2022/03/07 05:38:56;;;;;;;9.68;3.17;;;0.30;99.90;;;;;;5033851;28;20488;-66
2022/03/07 05:41:22;;;;;;;11.05;2.17;;;0.20;99.90;;;;;;5032291;28;20049;-66
2022/03/07 05:43:47;;;;;;;12.48;3.55;;;0.20;99.90;;;;;;5035759;28;20052;-66
2022/03/07 05:46:13;;;;;;;4.30;2.03;;;0.20;99.90;;;;;;5043089;28;20274;-66
2022/03/07 05:48:39;;;;;;;8.23;3.83;;;0.40;99.90;;;;;;5028381;28;20049;-66
2022/03/07 05:51:04;;;;;;;9.63;3.05;;;0.50;99.90;;;;;;5032346;28;20021;-66
2022/03/07 05:53:30;;;;;;;5.35;2.55;;;0.40;99.90;;;;;;5032486;28;20362;-66
2022/03/07 05:55:56;;;;;;;5.97;2.60;;;0.30;99.90;;;;;;5031628;28;20033;-66
2022/03/07 05:58:21;;;;;;;3.80;2.00;;;0.20;99.90;;;;;;5036598;28;20431;-66
2022/03/07 06:00:47;;;;;;;5.13;2.75;;;0.30;99.90;;;;;;5037156;28;20105;-67
2022/03/07 06:03:13;;;;;;;8.45;2.45;;;0.30;99.90;;;;;;5039467;28;20028;-67
2022/03/07 06:05:38;;;;;;;6.70;2.75;;;0.40;99.90;;;;;;5031773;28;20112;-67
2022/03/07 06:08:05;;;;;;;7.60;2.75;;;0.40;99.90;;;;;;5028226;28;20583;-66
2022/03/07 06:10:31;;;;;;;6.07;2.50;;;0.30;99.90;;;;;;5026847;28;20432;-66
2022/03/07 06:12:57;;;;;;;17.67;2.97;;;0.30;99.90;;;;;;5032080;28;20029;-66
2022/03/07 06:15:23;;;;;;;12.40;3.35;;;0.20;99.90;;;;;;5036386;28;20499;-66
2022/03/07 06:17:54;;;;;;;5.93;2.80;;;0.30;99.90;;;;;;5030603;28;20038;-66
2022/03/07 06:20:20;;;;;;;5.55;2.90;;;0.40;99.90;;;;;;5031253;28;20468;-66
2022/03/07 06:22:46;;;;;;;6.68;2.60;;;0.30;99.90;;;;;;5035734;28;20024;-66
2022/03/07 06:25:12;;;;;;;5.80;2.28;;;0.30;99.90;;;;;;5029501;28;20028;-66
2022/03/07 06:27:38;;;;;;;6.70;2.85;;;0.20;99.90;;;;;;5026686;28;20037;-66
2022/03/07 06:30:04;;;;;;;6.00;2.17;;;0.20;99.90;;;;;;5037320;28;20183;-66
2022/03/07 06:32:30;;;;;;;8.88;2.97;;;0.20;99.90;;;;;;5035381;28;20461;-66
2022/03/07 06:34:55;;;;;;;8.05;3.58;;;0.10;99.90;;;;;;5042926;28;20036;-66
2022/03/07 06:37:23;;;;;;;8.57;2.17;;;0.10;99.90;;;;;;5038076;28;20396;-66
2022/03/07 06:39:48;;;;;;;7.38;2.45;;;0.10;99.90;;;;;;5034088;28;20110;-66
2022/03/07 06:42:14;;;;;;;6.05;2.45;;;0.30;99.90;;;;;;5033238;28;20064;-66
2022/03/07 06:44:40;;;;;;;10.23;2.72;;;0.30;99.90;;;;;;5035662;28;20028;-66
2022/03/07 06:47:09;;;;;;;4.75;2.47;;;0.40;99.90;;;;;;5035633;28;20048;-66
2022/03/07 06:49:36;;;;;;;7.22;2.55;;;0.60;99.90;;;;;;5033393;28;20025;-66
2022/03/07 06:52:02;;;;;;;5.07;1.92;;;0.70;99.90;;;;;;5034591;28;20049;-66
2022/03/07 06:54:28;;;;;;;4.30;2.08;;;0.80;99.90;;;;;;5039514;28;20111;-66
2022/03/07 06:56:54;;;;;;;4.78;2.47;;;0.80;99.90;;;;;;5034263;28;20033;-66
2022/03/07 06:59:20;;;;;;;6.57;3.00;;;1.10;99.90;;;;;;5028288;28;20061;-66
2022/03/07 07:01:45;;;;;;;11.25;2.72;;;1.00;99.90;;;;;;5037785;28;20064;-66
2022/03/07 07:04:11;;;;;;;5.85;1.67;;;1.00;99.90;;;;;;5042868;28;20021;-66
2022/03/07 07:06:37;;;;;;;5.72;2.40;;;1.10;99.90;;;;;;5043000;28;20075;-66
2022/03/07 07:09:03;;;;;;;6.70;2.38;;;1.20;99.90;;;;;;5035366;28;20112;-66
2022/03/07 07:11:28;;;;;;;5.95;2.15;;;1.40;99.90;;;;;;5039288;28;20032;-66
2022/03/07 07:13:54;;;;;;;3.85;1.52;;;1.50;99.90;;;;;;5038468;28;20029;-66
2022/03/07 07:16:19;;;;;;;3.78;2.10;;;1.70;99.90;;;;;;5040542;28;20025;-66
2022/03/07 07:18:45;;;;;;;3.97;1.52;;;1.90;99.90;;;;;;5039290;28;20083;-66
2022/03/07 07:21:11;;;;;;;2.22;1.25;;;2.00;99.90;;;;;;5045439;28;20385;-66
2022/03/07 07:23:37;;;;;;;5.30;2.45;;;2.20;99.90;;;;;;5038231;28;20033;-66
2022/03/07 07:26:04;;;;;;;4.25;1.48;;;2.20;99.90;;;;;;5041990;28;20021;-66
2022/03/07 07:28:30;;;;;;;4.00;1.50;;;2.30;99.90;;;;;;5039969;28;20023;-66
2022/03/07 07:30:55;;;;;;;2.90;1.20;;;2.50;99.90;;;;;;5037835;28;20108;-66
2022/03/07 07:33:21;;;;;;;6.22;1.77;;;2.40;99.90;;;;;;5039659;28;20033;-66
2022/03/07 07:35:46;;;;;;;1.83;1.13;;;2.50;99.90;;;;;;5045311;28;20029;-66
2022/03/07 07:38:13;;;;;;;6.90;2.00;;;2.60;99.90;;;;;;5040326;28;20040;-66
2022/03/07 07:40:39;;;;;;;9.48;2.85;;;2.70;99.90;;;;;;5043780;28;20060;-66
2022/03/07 07:43:04;;;;;;;8.48;2.53;;;2.70;99.90;;;;;;5042894;28;20464;-66
2022/03/07 07:45:30;;;;;;;6.80;1.90;;;2.60;99.90;;;;;;5040298;28;20078;-66
2022/03/07 07:47:58;;;;;;;3.03;1.65;;;2.50;99.90;;;;;;5041798;28;20064;-66
2022/03/07 07:50:23;;;;;;;3.50;1.73;;;2.60;99.90;;;;;;5042678;28;20493;-66
2022/03/07 07:52:49;;;;;;;4.60;2.03;;;2.60;99.90;;;;;;5045161;28;20075;-66
2022/03/07 07:55:14;;;;;;;5.78;1.85;;;2.50;99.90;;;;;;5041316;28;20106;-66
2022/03/07 07:57:40;;;;;;;6.93;2.45;;;2.50;99.90;;;;;;5038281;28;20094;-66
2022/03/07 08:00:07;;;;;;;7.53;2.42;;;2.50;99.90;;;;;;5043777;28;20029;-66
2022/03/07 08:02:33;;;;;;;7.15;2.28;;;2.60;99.90;;;;;;5042100;28;20481;-66
2022/03/07 08:04:59;;;;;;;4.30;1.92;;;2.70;99.90;;;;;;5045315;28;20025;-66
2022/03/07 08:07:25;;;;;;;5.70;2.42;;;2.70;99.90;;;;;;5043117;28;20885;-66
2022/03/07 08:09:50;;;;;;;8.18;2.53;;;2.70;99.90;;;;;;5042812;28;20086;-66
2022/03/07 08:12:18;;;;;;;4.68;2.22;;;2.80;99.90;;;;;;5044377;28;20033;-66
2022/03/07 08:14:44;;;;;;;3.67;1.85;;;2.90;99.90;;;;;;5042172;28;20025;-66
2022/03/07 08:17:11;;;;;;;3.30;1.67;;;3.00;99.90;;;;;;5038588;28;20033;-66
2022/03/07 08:19:37;;;;;;;6.50;2.60;;;3.10;99.90;;;;;;5040364;28;20550;-66
2022/03/07 08:22:03;;;;;;;3.70;1.85;;;3.10;99.90;;;;;;5041389;28;20025;-66
2022/03/07 08:24:28;;;;;;;4.32;1.88;;;3.20;99.90;;;;;;5049836;28;20203;-66
2022/03/07 08:26:54;;;;;;;6.03;2.42;;;3.30;99.90;;;;;;5045785;28;20432;-66
2022/03/07 08:29:20;;;;;;;6.07;1.90;;;3.20;99.90;;;;;;5042308;28;20523;-67
2022/03/07 08:31:45;;;;;;;2.20;1.33;;;3.30;99.90;;;;;;5044636;28;20032;-66
2022/03/07 08:34:11;;;;;;;4.63;2.30;;;3.30;99.90;;;;;;5047460;28;20036;-66
2022/03/07 08:36:37;;;;;;;4.72;1.60;;;3.40;99.90;;;;;;5037780;28;20025;-66
2022/03/07 08:39:03;;;;;;;10.05;2.35;;;3.60;99.90;;;;;;5050822;28;20425;-66
2022/03/07 08:41:28;;;;;;;10.38;3.30;;;3.70;99.90;;;;;;5045131;28;20136;-66
2022/03/07 08:43:55;;;;;;;4.70;1.88;;;3.90;99.90;;;;;;5046910;28;20583;-66
2022/03/07 08:46:21;;;;;;;3.78;1.48;;;4.30;99.90;;;;;;5046116;28;20314;-66
2022/03/07 08:48:46;;;;;;;4.03;1.73;;;4.80;99.90;;;;;;5047584;28;20260;-66
2022/03/07 08:51:12;;;;;;;2.95;1.58;;;5.20;99.90;;;;;;5046079;28;20029;-66
2022/03/07 08:53:38;;;;;;;2.00;1.10;;;5.50;99.90;;;;;;5046816;28;20508;-67
2022/03/07 08:56:04;;;;;;;4.90;1.80;;;5.90;99.90;;;;;;5041141;28;20033;-66
2022/03/07 08:58:29;;;;;;;7.47;2.03;;;5.80;99.20;;;;;;5046980;28;20036;-66
2022/03/07 09:00:55;;;;;;;11.85;2.13;;;6.40;99.40;;;;;;5044099;28;20040;-66
2022/03/07 09:03:20;;;;;;;7.30;2.10;;;7.20;98.20;;;;;;5042469;28;20530;-67
2022/03/07 09:05:46;;;;;;;5.55;1.73;;;7.60;97.00;;;;;;5042452;28;20047;-67
2022/03/07 09:08:12;;;;;;;4.93;1.52;;;7.80;96.80;;;;;;5048211;28;20144;-66
2022/03/07 09:10:37;;;;;;;3.25;1.42;;;8.40;96.10;;;;;;5046297;28;20759;-67
2022/03/07 09:13:03;;;;;;;6.85;1.92;;;8.70;95.60;;;;;;5042263;28;20055;-66
2022/03/07 09:15:29;;;;;;;3.17;1.60;;;8.20;94.70;;;;;;5046013;28;20079;-66
2022/03/07 09:17:55;;;;;;;3.85;1.70;;;8.00;95.30;;;;;;5045083;28;20028;-66
2022/03/07 09:20:20;;;;;;;4.20;1.63;;;7.40;95.70;;;;;;5043780;28;20025;-66
2022/03/07 09:22:46;;;;;;;4.53;1.75;;;7.50;96.00;;;;;;5046321;28;20029;-66
2022/03/07 09:25:14;;;;;;;5.45;1.80;;;6.00;97.10;;;;;;5046177;28;20124;-66
2022/03/07 09:27:40;;;;;;;5.45;1.67;;;7.00;97.50;;;;;;5045399;28;20033;-66
2022/03/07 09:30:06;;;;;;;5.30;2.08;;;7.30;96.10;;;;;;5046084;28;20045;-66
2022/03/07 09:32:32;;;;;;;4.90;1.60;;;7.00;96.10;;;;;;5046726;28;20467;-67
2022/03/07 09:34:58;;;;;;;5.03;1.80;;;8.30;95.10;;;;;;5041274;28;20029;-66
2022/03/07 09:37:24;;;;;;;5.05;1.50;;;8.60;95.30;;;;;;5043798;28;20104;-67
2022/03/07 09:39:50;;;;;;;2.05;1.08;;;8.70;93.90;;;;;;5044743;28;20345;-66
2022/03/07 09:42:15;;;;;;;5.30;1.80;;;8.20;94.50;;;;;;5045437;28;20540;-66
2022/03/07 09:44:41;;;;;;;4.10;1.77;;;8.70;94.00;;;;;;5042056;28;20117;-66
2022/03/07 09:47:07;;;;;;;7.35;2.25;;;8.60;94.20;;;;;;5048862;28;20078;-66
2022/03/07 09:49:33;;;;;;;7.20;2.40;;;7.70;94.10;;;;;;5041736;28;20037;-66
2022/03/07 09:51:59;;;;;;;5.90;1.98;;;6.80;95.00;;;;;;5044224;28;20462;-66
2022/03/07 09:54:25;;;;;;;5.28;1.98;;;6.90;95.50;;;;;;5046035;28;20116;-66
2022/03/07 09:56:52;;;;;;;7.20;2.22;;;6.70;95.90;;;;;;5040838;28;20521;-66
2022/03/07 09:59:20;;;;;;;5.75;1.70;;;7.60;95.70;;;;;;5039438;28;20029;-66
2022/03/07 10:01:56;;;;;;;5.75;1.88;;;7.90;95.40;;;;;;5038186;28;20137;-67
2022/03/07 10:04:22;;;;;;;5.68;2.00;;;9.30;94.20;;;;;;5044932;28;20025;-66
2022/03/07 10:06:49;;;;;;;8.60;2.33;;;8.10;94.10;;;;;;5039468;28;20099;-66
2022/03/07 10:09:23;;;;;;;5.72;2.00;;;7.10;94.80;;;;;;5044432;28;20024;-66
2022/03/07 10:11:55;;;;;;;3.30;1.20;;;7.70;94.80;;;;;;5044323;28;20379;-66
2022/03/07 10:14:42;;;;;;;3.53;1.60;;;8.70;95.00;;;;;;5038245;28;20035;-66
2022/03/07 10:17:18;;;;;;;5.38;1.75;;;8.60;93.90;;;;;;5042585;28;20031;-67
2022/03/07 10:19:44;;;;;;;4.07;1.50;;;7.90;94.50;;;;;;5042091;28;20032;-66
2022/03/07 10:22:15;;;;;;;4.35;1.40;;;8.10;93.90;;;;;;5034330;28;20030;-66
2022/03/07 10:24:40;;;;;;;;;;;8.50;94.10;;;;;;5046947;28;20547;-66
2022/03/07 10:27:06;;;;;;;5.03;1.60;;;7.80;93.80;;;;;;5043644;28;19908;-66
2022/03/07 10:29:32;;;;;;;3.42;1.63;;;7.20;95.60;;;;;;5040358;28;20045;-67
2022/03/07 10:31:59;;;;;;;5.03;2.10;;;8.00;95.70;;;;;;5042248;28;20021;-67
2022/03/07 10:34:26;;;;;;;7.65;2.17;;;8.20;93.90;;;;;;5041477;28;20017;-67
2022/03/07 10:36:53;;;;;;;6.00;1.98;;;8.90;93.10;;;;;;5037251;28;20044;-67
2022/03/07 10:39:24;;;;;;;4.90;1.52;;;8.20;93.60;;;;;;5045157;28;20489;-67
2022/03/07 10:41:50;;;;;;;7.85;1.80;;;8.30;94.90;;;;;;5041344;28;20037;-67
2022/03/07 10:44:37;;;;;;;5.50;1.85;;;8.70;94.10;;;;;;5041564;28;20618;-67
2022/03/07 10:47:12;;;;;;;5.65;1.85;;;8.30;94.90;;;;;;5039708;28;20584;-67
2022/03/07 10:49:57;;;;;;;5.65;2.10;;;8.70;94.10;;;;;;5037120;28;20022;-67
2022/03/07 10:52:25;;;;;;;5.20;1.70;;;10.10;93.00;;;;;;5041007;28;20043;-67
2022/03/07 10:54:51;;;;;;;8.38;1.73;;;10.70;91.60;;;;;;5037776;28;20033;-67
2022/03/07 10:57:19;;;;;;;5.20;1.45;;;11.70;91.30;;;;;;5037948;28;20033;-67
2022/03/07 10:59:45;;;;;;;4.85;1.73;;;11.30;90.60;;;;;;5034789;28;20504;-67
2022/03/07 11:02:16;;;;;;;4.25;1.67;;;11.60;90.30;;;;;;5036127;28;20501;-67
2022/03/07 11:04:45;;;;;;;5.72;1.60;;;11.00;90.40;;;;;;5045457;28;20454;-67
2022/03/07 11:07:12;;;;;;;7.57;2.20;;;9.60;92.00;;;;;;5048660;28;20021;-67
2022/03/07 11:09:38;;;;;;;6.90;1.85;;;8.80;92.30;;;;;;5047987;28;20036;-66
2022/03/07 11:12:09;;;;;;;3.83;1.60;;;8.70;93.70;;;;;;5045665;28;20067;-66
2022/03/07 11:14:37;;;;;;;4.35;1.52;;;10.90;90.80;;;;;;5037689;28;20040;-66
2022/03/07 11:17:03;;;;;;;4.90;1.58;;;9.80;91.20;;;;;;5042945;28;20013;-66
2022/03/07 11:19:29;;;;;;;3.10;1.35;;;11.90;90.00;;;;;;5043424;28;20112;-66
2022/03/07 11:21:56;;;;;;;5.90;1.70;;;12.30;88.00;;;;;;5040386;28;20116;-66
2022/03/07 11:24:24;;;;;;;5.22;1.58;;;11.50;90.00;;;;;;5041921;28;20024;-66
2022/03/07 11:26:52;;;;;;;5.75;1.90;;;12.80;87.60;;;;;;5043387;28;20061;-66
2022/03/07 11:29:19;;;;;;;4.40;1.80;;;12.00;84.50;;;;;;5044183;28;20052;-66
2022/03/07 11:31:46;;;;;;;5.10;2.03;;;9.40;90.40;;;;;;5044498;28;20102;-66
2022/03/07 11:34:12;;;;;;;7.53;1.95;;;10.10;90.20;;;;;;5035980;28;20420;-66
2022/03/07 11:36:44;;;;;;;8.98;2.45;;;10.10;90.00;;;;;;5037920;28;20392;-66
2022/03/07 11:39:11;;;;;;;8.20;1.83;;;9.70;91.60;;;;;;5036228;28;20036;-66
2022/03/07 11:41:38;;;;;;;8.27;2.20;;;12.10;86.90;;;;;;5036755;28;20532;-66
2022/03/07 11:44:07;;;;;;;6.30;2.08;;;11.20;88.20;;;;;;5041091;28;20474;-67
2022/03/07 11:46:35;;;;;;;5.88;1.92;;;11.30;88.30;;;;;;5045130;28;20041;-67
2022/03/07 11:49:03;;;;;;;7.00;2.70;;;11.60;86.60;;;;;;5043104;28;20100;-67
2022/03/07 11:51:31;;;;;;;4.22;1.55;;;12.70;87.20;;;;;;5041953;28;20032;-66
2022/03/07 11:53:58;;;;;;;7.32;2.00;;;12.70;84.90;;;;;;5048105;28;20033;-67
2022/03/07 11:56:29;;;;;;;7.03;2.30;;;13.30;82.90;;;;;;5043235;28;20346;-67
2022/03/07 11:58:56;;;;;;;3.75;1.60;;;11.50;84.50;;;;;;5037134;28;20044;-66
2022/03/07 12:01:24;;;;;;;4.53;1.90;;;11.20;87.60;;;;;;5052455;28;20033;-66
2022/03/07 12:03:50;;;;;;;6.25;2.03;;;13.30;83.40;;;;;;5041830;28;20479;-66
2022/03/07 12:06:19;;;;;;;5.32;1.52;;;13.10;83.80;;;;;;5040797;28;20473;-67
2022/03/07 12:08:46;;;;;;;5.85;1.80;;;12.10;83.40;;;;;;5037619;28;20072;-66
2022/03/07 12:11:26;;;;;;;5.57;2.13;;;12.30;84.40;;;;;;5037566;28;20141;-66
2022/03/07 12:13:54;;;;;;;5.47;1.85;;;11.40;86.10;;;;;;5041105;28;20022;-66
2022/03/07 12:16:34;;;;;;;7.07;2.20;;;11.80;86.20;;;;;;5040007;28;20489;-66
2022/03/07 12:19:19;;;;;;;5.78;2.05;;;10.80;86.00;;;;;;5044878;28;20036;-66
2022/03/07 12:21:47;;;;;;;7.05;2.53;;;10.00;88.00;;;;;;5044432;28;20057;-66
2022/03/07 12:24:15;;;;;;;5.32;2.03;;;10.10;88.50;;;;;;5042920;28;20024;-66
2022/03/07 12:26:44;;;;;;;6.10;1.77;;;10.60;87.20;;;;;;5047759;28;20361;-66
2022/03/07 12:29:10;;;;;;;22.58;2.35;;;12.00;85.90;;;;;;5043319;28;20050;-66
2022/03/07 12:31:36;;;;;;;4.43;1.65;;;10.30;87.70;;;;;;5037304;28;20021;-67
2022/03/07 12:34:03;;;;;;;6.88;2.45;;;12.60;86.40;;;;;;5035779;28;20164;-67
2022/03/07 12:36:29;;;;;;;6.20;2.17;;;12.30;84.00;;;;;;5040154;28;20083;-66
2022/03/07 12:38:57;;;;;;;8.00;2.65;;;12.50;82.60;;;;;;5039260;28;20421;-66
2022/03/07 12:41:36;;;;;;;6.25;2.25;;;12.50;83.10;;;;;;5036942;28;20033;-67
2022/03/07 12:44:03;;;;;;;5.63;1.90;;;12.80;84.50;;;;;;5040150;28;20856;-67
2022/03/07 12:46:30;;;;;;;9.57;2.47;;;13.80;83.20;;;;;;5041171;28;20060;-66
2022/03/07 12:48:57;;;;;;;7.55;2.08;;;10.70;84.70;;;;;;5022759;28;20045;-66